createdAt,value
2022-12-25T00:01:59.474Z,4.73
2022-12-25T00:04:29.576Z,4.68
2022-12-25T00:07:00.070Z,4.66
2022-12-25T00:09:30.088Z,4.64
2022-12-25T00:12:00.293Z,4.63
2022-12-25T00:14:30.887Z,4.60
2022-12-25T00:17:01.774Z,4.59
2022-12-25T00:19:32.160Z,4.56
2022-12-25T00:22:02.326Z,4.54
2022-12-25T00:24:32.766Z,4.53
2022-12-25T00:27:03.181Z,4.52
2022-12-25T00:29:33.908Z,4.51
2022-12-25T00:32:04.101Z,4.51
2022-12-25T00:34:34.630Z,4.51
2022-12-25T00:37:04.669Z,4.53
2022-12-25T00:39:35.176Z,4.56
2022-12-25T00:42:05.834Z,4.59
2022-12-25T00:44:36.414Z,4.60
2022-12-25T00:47:07.121Z,4.64
2022-12-25T00:49:37.066Z,4.64
2022-12-25T00:52:07.977Z,4.68
2022-12-25T00:54:38.573Z,4.71
2022-12-25T00:57:09.199Z,4.73
2022-12-25T00:59:39.934Z,4.76
2022-12-25T01:02:10.536Z,4.77
2022-12-25T01:04:40.852Z,4.78
2022-12-25T01:07:10.993Z,4.79
2022-12-25T01:09:41.174Z,4.80
2022-12-25T01:12:11.867Z,4.81
2022-12-25T01:14:42.184Z,4.79
2022-12-25T01:17:12.948Z,4.79
2022-12-25T01:19:43.115Z,4.82
2022-12-25T01:22:13.231Z,4.85
2022-12-25T01:24:43.599Z,4.85
2022-12-25T01:27:16.323Z,4.91
2022-12-25T01:29:44.994Z,4.93
2022-12-25T01:32:15.758Z,4.94
2022-12-25T01:34:49.349Z,4.92
2022-12-25T01:37:16.729Z,4.93
2022-12-25T01:39:46.876Z,4.95
2022-12-25T01:42:17.373Z,4.92
2022-12-25T01:44:47.729Z,4.93
2022-12-25T01:47:18.466Z,4.93
2022-12-25T01:49:49.205Z,4.93
2022-12-25T01:52:23.881Z,4.95
2022-12-25T01:54:49.966Z,4.98
2022-12-25T01:57:20.241Z,5.01
2022-12-25T01:59:51.073Z,5.04
2022-12-25T02:02:21.629Z,5.03
2022-12-25T02:04:52.322Z,5.00
2022-12-25T02:07:22.644Z,4.98
2022-12-25T02:09:53.118Z,4.97
2022-12-25T02:12:23.527Z,4.96
2022-12-25T02:14:57.239Z,4.98
2022-12-25T02:17:24.496Z,5.00
2022-12-25T02:19:54.881Z,5.01
2022-12-25T02:22:25.693Z,5.03
2022-12-25T02:24:56.248Z,5.00
2022-12-25T02:27:27.062Z,5.04
2022-12-25T02:29:57.807Z,5.07
2022-12-25T02:32:28.007Z,5.09
2022-12-25T02:34:58.065Z,5.14
2022-12-25T02:37:28.403Z,5.10
2022-12-25T02:39:58.750Z,5.17
2022-12-25T02:42:28.802Z,5.23
2022-12-25T02:44:58.904Z,5.28
2022-12-25T02:47:29.660Z,5.34
2022-12-25T02:50:00.084Z,5.35
2022-12-25T02:52:30.792Z,5.32
2022-12-25T02:55:00.984Z,5.36
2022-12-25T02:57:31.019Z,5.45
2022-12-25T03:00:01.186Z,5.47
2022-12-25T03:02:32.030Z,5.50
2022-12-25T03:05:02.690Z,5.52
2022-12-25T03:07:33.120Z,5.56
2022-12-25T03:10:03.263Z,5.65
2022-12-25T03:12:33.956Z,5.71
2022-12-25T03:15:04.671Z,5.77
2022-12-25T03:17:34.757Z,5.80
2022-12-25T03:20:05.458Z,5.86
2022-12-25T03:22:35.887Z,5.92
2022-12-25T03:25:06.118Z,5.90
2022-12-25T03:27:36.339Z,5.97
2022-12-25T03:30:06.461Z,6.01
2022-12-25T03:32:37.349Z,6.01
2022-12-25T03:35:08.076Z,6.05
2022-12-25T03:37:38.864Z,6.06
2022-12-25T03:40:09.617Z,6.06
2022-12-25T03:42:40.296Z,6.10
2022-12-25T03:45:10.846Z,6.12
2022-12-25T03:47:40.994Z,6.15
2022-12-25T03:50:11.768Z,6.16
2022-12-25T03:52:41.946Z,6.12
2022-12-25T03:55:12.369Z,6.11
2022-12-25T03:57:42.654Z,6.10
2022-12-25T04:00:13.329Z,6.10
2022-12-25T04:02:43.923Z,6.12
2022-12-25T04:05:14.467Z,6.14
2022-12-25T04:07:44.900Z,6.17
2022-12-25T04:10:14.927Z,6.24
2022-12-25T04:12:45.106Z,6.37
2022-12-25T04:15:15.427Z,6.44
2022-12-25T04:17:46.038Z,6.39
2022-12-25T04:20:16.527Z,6.37
2022-12-25T04:22:46.793Z,6.35
2022-12-25T04:25:17.482Z,6.34
2022-12-25T04:27:48.198Z,6.35
2022-12-25T04:30:18.531Z,6.37
2022-12-25T04:32:49.254Z,6.33
2022-12-25T04:35:19.587Z,6.37
2022-12-25T04:37:50.263Z,6.40
2022-12-25T04:40:20.963Z,6.42
2022-12-25T04:42:51.352Z,6.48
2022-12-25T04:45:21.397Z,6.52
2022-12-25T04:47:52.131Z,6.52
2022-12-25T04:50:22.897Z,6.54
2022-12-25T04:52:53.418Z,6.53
2022-12-25T04:55:23.838Z,6.56
2022-12-25T04:57:54.454Z,6.63
2022-12-25T05:00:25.091Z,6.62
2022-12-25T05:02:55.622Z,6.66
2022-12-25T05:05:25.827Z,6.65
2022-12-25T05:07:56.475Z,6.70
2022-12-25T05:10:27.110Z,6.70
2022-12-25T05:12:57.546Z,6.72
2022-12-25T05:15:28.389Z,6.72
2022-12-25T05:17:59.160Z,6.71
2022-12-25T05:20:31.221Z,6.65
2022-12-25T05:22:59.971Z,6.67
2022-12-25T05:25:29.920Z,6.70
2022-12-25T05:28:00.343Z,6.68
2022-12-25T05:30:30.918Z,6.68
2022-12-25T05:33:00.978Z,6.70
2022-12-25T05:35:31.712Z,6.72
2022-12-25T05:38:02.118Z,6.70
2022-12-25T05:40:32.130Z,6.66
2022-12-25T05:43:02.826Z,6.67
2022-12-25T05:45:33.208Z,6.67
2022-12-25T05:48:03.555Z,6.67
2022-12-25T05:50:34.124Z,6.72
2022-12-25T05:53:08.035Z,6.81
2022-12-25T05:55:34.578Z,6.80
2022-12-25T05:58:05.281Z,6.84
2022-12-25T06:00:36.153Z,6.93
2022-12-25T06:03:06.787Z,7.05
2022-12-25T06:05:37.129Z,7.04
2022-12-25T06:08:07.529Z,7.08
2022-12-25T06:10:38.221Z,7.14
2022-12-25T06:13:08.615Z,7.17
2022-12-25T06:15:38.600Z,7.20
2022-12-25T06:18:08.760Z,7.24
2022-12-25T06:20:39.393Z,7.23
2022-12-25T06:23:10.076Z,7.23
2022-12-25T06:25:40.018Z,7.19
2022-12-25T06:28:10.398Z,7.23
2022-12-25T06:30:40.957Z,7.32
2022-12-25T06:33:11.524Z,7.39
2022-12-25T06:35:41.961Z,7.39
2022-12-25T06:38:12.686Z,7.48
2022-12-25T06:40:43.119Z,7.54
2022-12-25T06:43:13.765Z,7.51
2022-12-25T06:45:44.381Z,7.54
2022-12-25T06:48:15.036Z,7.53
2022-12-25T06:50:45.349Z,7.53
2022-12-25T06:53:15.384Z,7.55
2022-12-25T06:55:45.903Z,7.59
2022-12-25T06:58:16.644Z,7.53
2022-12-25T07:00:47.452Z,7.58
2022-12-25T07:03:18.269Z,7.63
2022-12-25T07:05:48.828Z,7.69
2022-12-25T07:08:19.542Z,7.70
2022-12-25T07:10:50.197Z,7.79
2022-12-25T07:13:20.413Z,7.85
2022-12-25T07:15:50.420Z,7.87
2022-12-25T07:18:21.255Z,7.90
2022-12-25T07:20:51.881Z,7.92
2022-12-25T07:23:22.532Z,7.96
2022-12-25T07:25:53.036Z,7.91
2022-12-25T07:28:23.392Z,7.91
2022-12-25T07:30:53.698Z,7.92
2022-12-25T07:33:24.253Z,7.92
2022-12-25T07:35:54.767Z,7.92
2022-12-25T07:38:25.124Z,7.94
2022-12-25T07:40:55.413Z,7.88
2022-12-25T07:43:26.265Z,7.94
2022-12-25T07:45:56.588Z,7.90
2022-12-25T07:48:26.879Z,7.91
2022-12-25T07:50:57.726Z,7.91
2022-12-25T07:53:28.318Z,7.91
2022-12-25T07:55:58.539Z,7.93
2022-12-25T07:58:29.173Z,7.89
2022-12-25T08:00:59.528Z,7.92
2022-12-25T08:03:30.176Z,7.95
2022-12-25T08:06:00.576Z,7.95
2022-12-25T08:08:30.954Z,7.93
2022-12-25T08:11:01.448Z,7.92
2022-12-25T08:13:32.112Z,7.93
2022-12-25T08:16:02.091Z,7.90
2022-12-25T08:18:32.370Z,7.88
2022-12-25T08:21:02.682Z,7.89
2022-12-25T08:23:32.996Z,7.94
2022-12-25T08:26:05.423Z,7.99
2022-12-25T08:28:33.887Z,8.01
2022-12-25T08:31:04.193Z,7.99
2022-12-25T08:33:34.725Z,7.89
2022-12-25T08:36:05.057Z,7.90
2022-12-25T08:38:35.943Z,7.93
2022-12-25T08:41:06.662Z,7.90
2022-12-25T08:43:36.813Z,7.84
2022-12-25T08:46:06.958Z,7.82
2022-12-25T08:48:37.228Z,7.80
2022-12-25T08:51:07.949Z,7.79
2022-12-25T08:53:38.281Z,7.76
2022-12-25T08:56:08.872Z,7.73
2022-12-25T08:58:39.168Z,7.74
2022-12-25T09:01:09.415Z,7.71
2022-12-25T09:03:40.215Z,7.71
2022-12-25T09:06:10.318Z,7.73
2022-12-25T09:08:48.172Z,7.75
2022-12-25T09:11:12.052Z,7.78
2022-12-25T09:13:42.696Z,7.80
2022-12-25T09:16:13.155Z,7.84
2022-12-25T09:18:43.615Z,7.88
2022-12-25T09:21:13.903Z,7.92
2022-12-25T09:23:44.164Z,7.96
2022-12-25T09:26:14.760Z,8.00
2022-12-25T09:28:50.650Z,8.03
2022-12-25T09:31:15.450Z,8.04
2022-12-25T09:33:46.024Z,8.07
2022-12-25T09:36:16.700Z,8.11
2022-12-25T09:38:46.855Z,8.07
2022-12-25T09:41:17.440Z,8.09
2022-12-25T09:43:47.515Z,8.13
2022-12-25T09:46:17.745Z,8.16
2022-12-25T09:48:48.273Z,8.15
2022-12-25T09:51:18.571Z,8.18
2022-12-25T09:53:49.278Z,8.24
2022-12-25T09:56:20.116Z,8.30
2022-12-25T09:58:50.617Z,8.32
2022-12-25T10:01:21.288Z,8.35
2022-12-25T10:03:51.780Z,8.32
2022-12-25T10:06:21.947Z,8.29
2022-12-25T10:08:52.524Z,8.33
2022-12-25T10:11:22.812Z,8.39
2022-12-25T10:13:53.401Z,8.42
2022-12-25T10:16:23.763Z,8.44
2022-12-25T10:18:53.900Z,8.44
2022-12-25T10:21:24.176Z,8.41
2022-12-25T10:23:54.492Z,8.36
2022-12-25T10:26:24.872Z,8.40
2022-12-25T10:28:55.075Z,8.43
2022-12-25T10:31:25.751Z,8.34
2022-12-25T10:33:56.218Z,8.30
2022-12-25T10:36:26.519Z,8.23
2022-12-25T10:38:57.135Z,8.18
2022-12-25T10:41:27.857Z,8.16
2022-12-25T10:43:58.322Z,8.16
2022-12-25T10:46:28.933Z,8.16
2022-12-25T10:48:59.487Z,8.12
2022-12-25T10:51:29.701Z,8.17
2022-12-25T10:54:00.311Z,8.11
2022-12-25T10:56:30.905Z,8.17
2022-12-25T10:59:01.529Z,8.16
2022-12-25T11:01:32.198Z,8.18
2022-12-25T11:04:02.752Z,8.16
2022-12-25T11:06:33.320Z,8.17
2022-12-25T11:09:04.257Z,8.11
2022-12-25T11:11:34.344Z,8.10
2022-12-25T11:14:04.878Z,8.13
2022-12-25T11:16:35.268Z,8.12
2022-12-25T11:19:06.317Z,8.14
2022-12-25T11:21:36.018Z,8.16
2022-12-25T11:24:06.646Z,8.19
2022-12-25T11:26:37.247Z,8.18
2022-12-25T11:29:07.885Z,8.19
2022-12-25T11:31:38.196Z,8.18
2022-12-25T11:34:08.769Z,8.22
2022-12-25T11:36:39.360Z,8.23
2022-12-25T11:39:09.698Z,8.28
2022-12-25T11:41:39.904Z,8.29
2022-12-25T11:44:10.543Z,8.31
2022-12-25T11:46:41.170Z,8.27
2022-12-25T11:49:11.723Z,8.23
2022-12-25T11:51:42.333Z,8.20
2022-12-25T11:54:12.602Z,8.21
2022-12-25T11:56:43.257Z,8.24
2022-12-25T11:59:17.903Z,8.23
2022-12-25T12:01:44.518Z,8.22
2022-12-25T12:04:14.806Z,8.25
2022-12-25T12:06:44.927Z,8.25
2022-12-25T12:09:15.528Z,8.26
2022-12-25T12:11:46.108Z,8.25
2022-12-25T12:14:16.456Z,8.28
2022-12-25T12:16:46.825Z,8.30
2022-12-25T12:19:16.986Z,8.26
2022-12-25T12:21:47.565Z,8.21
2022-12-25T12:24:18.173Z,8.24
2022-12-25T12:26:48.481Z,8.24
2022-12-25T12:29:19.081Z,8.25
2022-12-25T12:31:49.782Z,8.29
2022-12-25T12:34:20.259Z,8.26
2022-12-25T12:36:50.844Z,8.27
2022-12-25T12:39:21.458Z,8.31
2022-12-25T12:41:52.046Z,8.31
2022-12-25T12:44:22.672Z,8.32
2022-12-25T12:46:53.032Z,8.26
2022-12-25T12:49:23.314Z,8.30
2022-12-25T12:51:53.578Z,8.32
2022-12-25T12:54:24.135Z,8.28
2022-12-25T12:56:54.705Z,8.29
2022-12-25T12:59:25.332Z,8.30
2022-12-25T13:01:56.029Z,8.33
2022-12-25T13:04:26.487Z,8.36
2022-12-25T13:06:57.078Z,8.33
2022-12-25T13:09:27.680Z,8.26
2022-12-25T13:11:58.039Z,8.24
2022-12-25T13:14:28.671Z,8.23
2022-12-25T13:16:58.914Z,8.21
2022-12-25T13:19:28.893Z,8.26
2022-12-25T13:21:59.471Z,8.36
2022-12-25T13:24:30.102Z,8.42
2022-12-25T13:27:00.628Z,8.46
2022-12-25T13:29:31.234Z,8.44
2022-12-25T13:32:01.909Z,8.39
2022-12-25T13:34:32.401Z,8.37
2022-12-25T13:37:03.049Z,8.37
2022-12-25T13:39:33.543Z,8.38
2022-12-25T13:42:04.100Z,8.33
2022-12-25T13:44:34.738Z,8.37
2022-12-25T13:47:05.256Z,8.43
2022-12-25T13:49:35.843Z,8.48
2022-12-25T13:52:06.397Z,8.54
2022-12-25T13:54:36.981Z,8.58
2022-12-25T13:57:07.550Z,8.62
2022-12-25T13:59:38.169Z,8.67
2022-12-25T14:02:08.884Z,8.69
2022-12-25T14:04:38.911Z,8.68
2022-12-25T14:07:09.467Z,8.68
2022-12-25T14:09:40.060Z,8.66
2022-12-25T14:12:15.712Z,8.63
2022-12-25T14:14:40.522Z,8.65
2022-12-25T14:17:11.297Z,8.68
2022-12-25T14:19:41.766Z,8.72
2022-12-25T14:22:12.324Z,8.74
2022-12-25T14:24:42.921Z,8.72
2022-12-25T14:27:13.471Z,8.73
2022-12-25T14:29:44.074Z,8.70
2022-12-25T14:32:14.615Z,8.71
2022-12-25T14:34:44.857Z,8.75
2022-12-25T14:37:15.419Z,8.78
2022-12-25T14:39:45.827Z,8.83
2022-12-25T14:42:16.479Z,8.84
2022-12-25T14:44:47.065Z,8.86
2022-12-25T14:47:17.244Z,8.85
2022-12-25T14:49:47.473Z,8.84
2022-12-25T14:52:17.772Z,8.84
2022-12-25T14:54:48.373Z,8.85
2022-12-25T14:57:18.733Z,8.86
2022-12-25T14:59:49.226Z,8.86
2022-12-25T15:02:19.975Z,8.86
2022-12-25T15:04:50.454Z,8.84
2022-12-25T15:07:20.628Z,8.81
2022-12-25T15:09:53.182Z,8.79
2022-12-25T15:12:21.172Z,8.68
2022-12-25T15:14:51.806Z,8.70
2022-12-25T15:17:22.358Z,8.69
2022-12-25T15:19:52.616Z,8.70
2022-12-25T15:22:22.909Z,8.69
2022-12-25T15:24:58.831Z,8.71
2022-12-25T15:27:24.115Z,8.73
2022-12-25T15:30:10.102Z,8.77
2022-12-25T15:32:25.075Z,8.75
2022-12-25T15:34:55.431Z,8.74
2022-12-25T15:37:25.757Z,8.70
2022-12-25T15:39:57.353Z,8.72
2022-12-25T15:42:26.582Z,8.67
2022-12-25T15:44:57.441Z,8.62
2022-12-25T15:47:27.725Z,8.59
2022-12-25T15:49:58.360Z,8.60
2022-12-25T15:52:28.948Z,8.60
2022-12-25T15:54:59.327Z,8.51
2022-12-25T15:57:29.905Z,8.50
2022-12-25T16:00:00.668Z,8.52
2022-12-25T16:02:31.342Z,8.57
2022-12-25T16:05:06.930Z,8.62
2022-12-25T16:07:32.320Z,8.69
2022-12-25T16:10:02.454Z,8.73
2022-12-25T16:12:32.706Z,8.78
2022-12-25T16:15:03.325Z,8.83
2022-12-25T16:17:33.896Z,8.87
2022-12-25T16:20:04.163Z,8.88
2022-12-25T16:22:34.466Z,8.89
2022-12-25T16:25:05.006Z,8.91
2022-12-25T16:27:35.310Z,8.93
2022-12-25T16:30:05.981Z,8.93
2022-12-25T16:32:36.489Z,8.87
2022-12-25T16:35:07.121Z,8.84
2022-12-25T16:37:38.116Z,8.85
2022-12-25T16:40:08.297Z,8.90
2022-12-25T16:42:38.796Z,8.95
2022-12-25T16:45:09.203Z,9.00
2022-12-25T16:47:39.634Z,9.09
2022-12-25T16:50:10.257Z,9.06
2022-12-25T16:52:40.263Z,9.06
2022-12-25T16:55:10.952Z,9.06
2022-12-25T16:57:41.071Z,9.05
2022-12-25T17:00:11.732Z,9.05
2022-12-25T17:02:41.858Z,9.03
2022-12-25T17:05:11.955Z,9.01
2022-12-25T17:07:42.469Z,9.00
2022-12-25T17:10:12.473Z,8.95
2022-12-25T17:12:43.015Z,8.96
2022-12-25T17:15:13.615Z,8.99
2022-12-25T17:17:44.165Z,9.00
2022-12-25T17:20:14.838Z,9.05
2022-12-25T17:22:44.921Z,9.07
2022-12-25T17:25:15.364Z,9.10
2022-12-25T17:27:46.079Z,9.07
2022-12-25T17:30:16.659Z,9.09
2022-12-25T17:32:47.412Z,9.11
2022-12-25T17:35:17.832Z,9.13
2022-12-25T17:37:47.998Z,9.16
2022-12-25T17:40:18.814Z,9.17
2022-12-25T17:42:49.380Z,9.18
2022-12-25T17:45:19.993Z,9.20
2022-12-25T17:47:50.563Z,9.17
2022-12-25T17:50:20.645Z,9.14
2022-12-25T17:52:50.859Z,9.15
2022-12-25T17:55:21.209Z,9.22
2022-12-25T17:57:51.782Z,9.24
2022-12-25T18:00:22.672Z,9.27
2022-12-25T18:02:53.030Z,9.19
2022-12-25T18:05:23.131Z,9.17
2022-12-25T18:07:53.721Z,9.15
2022-12-25T18:10:24.053Z,9.08
2022-12-25T18:12:54.343Z,9.07
2022-12-25T18:15:24.704Z,9.02
2022-12-25T18:17:54.889Z,9.03
2022-12-25T18:20:25.459Z,9.06
2022-12-25T18:22:55.713Z,9.13
2022-12-25T18:25:26.423Z,9.15
2022-12-25T18:27:56.901Z,9.13
2022-12-25T18:30:27.830Z,9.12
2022-12-25T18:32:58.603Z,9.15
2022-12-25T18:35:28.678Z,9.16
2022-12-25T18:37:59.478Z,9.16
2022-12-25T18:40:29.814Z,9.13
2022-12-25T18:43:03.385Z,9.11
2022-12-25T18:45:30.230Z,9.14
2022-12-25T18:48:00.955Z,9.15
2022-12-25T18:50:31.316Z,9.15
2022-12-25T18:53:01.221Z,9.17
2022-12-25T18:55:31.540Z,9.17
2022-12-25T18:58:02.226Z,9.18
2022-12-25T19:00:33.163Z,9.18
2022-12-25T19:03:03.353Z,9.21
2022-12-25T19:05:33.649Z,9.24
2022-12-25T19:08:04.330Z,9.25
2022-12-25T19:10:35.132Z,9.25
2022-12-25T19:13:05.662Z,9.24
2022-12-25T19:15:36.212Z,9.24
2022-12-25T19:18:06.939Z,9.23
2022-12-25T19:20:37.785Z,9.21
2022-12-25T19:23:08.610Z,9.18
2022-12-25T19:25:38.874Z,9.17
2022-12-25T19:28:09.119Z,9.20
2022-12-25T19:30:39.677Z,9.23
2022-12-25T19:33:17.243Z,9.25
2022-12-25T19:35:40.231Z,9.27
2022-12-25T19:38:10.765Z,9.28
2022-12-25T19:40:41.074Z,9.32
2022-12-25T19:43:11.539Z,9.35
2022-12-25T19:45:41.655Z,9.37
2022-12-25T19:48:11.855Z,9.35
2022-12-25T19:50:42.186Z,9.32
2022-12-25T19:53:13.063Z,9.31
2022-12-25T19:55:43.660Z,9.29
2022-12-25T19:58:13.911Z,9.24
2022-12-25T20:00:44.217Z,9.23
2022-12-25T20:03:14.545Z,9.21
2022-12-25T20:05:45.327Z,9.21
2022-12-25T20:08:15.871Z,9.20
2022-12-25T20:10:46.771Z,9.21
2022-12-25T20:13:16.998Z,9.22
2022-12-25T20:15:47.070Z,9.23
2022-12-25T20:18:17.816Z,9.25
2022-12-25T20:20:48.520Z,9.24
2022-12-25T20:23:18.429Z,9.24
2022-12-25T20:25:49.246Z,9.26
2022-12-25T20:28:19.900Z,9.24
2022-12-25T20:30:50.094Z,9.26
2022-12-25T20:33:20.102Z,9.29
2022-12-25T20:35:50.402Z,9.26
2022-12-25T20:38:21.187Z,9.25
2022-12-25T20:41:25.044Z,9.25
2022-12-25T20:43:21.833Z,9.25
2022-12-25T20:45:52.039Z,9.25
2022-12-25T20:48:22.293Z,9.24
2022-12-25T20:50:52.718Z,9.26
2022-12-25T20:53:23.166Z,9.28
2022-12-25T20:55:53.734Z,9.30
2022-12-25T20:58:23.996Z,9.30
2022-12-25T21:00:54.699Z,9.27
2022-12-25T21:03:25.593Z,9.31
2022-12-25T21:05:56.288Z,9.35
2022-12-25T21:08:26.592Z,9.33
2022-12-25T21:10:57.149Z,9.33
2022-12-25T21:13:27.718Z,9.27
2022-12-25T21:15:57.797Z,9.19
2022-12-25T21:18:28.644Z,9.09
2022-12-25T21:20:59.046Z,8.97
2022-12-25T21:23:29.297Z,8.96
2022-12-25T21:26:00.143Z,8.94
2022-12-25T21:28:30.468Z,8.93
2022-12-25T21:31:01.270Z,8.95
2022-12-25T21:33:31.469Z,8.93
2022-12-25T21:36:02.025Z,8.93
2022-12-25T21:38:32.235Z,8.95
2022-12-25T21:41:02.867Z,8.97
2022-12-25T21:43:33.117Z,8.95
2022-12-25T21:46:03.486Z,8.97
2022-12-25T21:48:33.401Z,8.99
2022-12-25T21:51:03.978Z,8.95
2022-12-25T21:53:34.833Z,8.93
2022-12-25T21:56:05.093Z,8.94
2022-12-25T21:58:35.402Z,8.94
2022-12-25T22:01:05.659Z,8.96
2022-12-25T22:03:36.053Z,8.92
2022-12-25T22:06:06.248Z,8.92
2022-12-25T22:08:37.212Z,8.94
2022-12-25T22:11:07.900Z,8.93
2022-12-25T22:13:38.547Z,8.89
2022-12-25T22:16:08.583Z,8.90
2022-12-25T22:18:39.078Z,8.90
2022-12-25T22:21:09.405Z,8.90
2022-12-25T22:23:39.432Z,8.90
2022-12-25T22:26:12.433Z,8.91
2022-12-25T22:28:40.912Z,8.91
2022-12-25T22:31:11.263Z,8.91
2022-12-25T22:33:41.610Z,8.94
2022-12-25T22:36:12.131Z,8.97
2022-12-25T22:38:42.585Z,8.95
2022-12-25T22:41:13.543Z,8.92
2022-12-25T22:44:15.892Z,8.93
2022-12-25T22:46:14.884Z,8.92
2022-12-25T22:48:44.934Z,8.89
2022-12-25T22:51:15.149Z,8.86
2022-12-25T22:53:45.301Z,8.85
2022-12-25T22:56:15.772Z,8.86
2022-12-25T22:58:46.003Z,8.81
2022-12-25T23:01:16.906Z,8.93
2022-12-25T23:03:47.348Z,9.02
2022-12-25T23:06:17.684Z,9.02
2022-12-25T23:08:48.284Z,8.99
2022-12-25T23:11:19.087Z,8.96
2022-12-25T23:13:49.337Z,8.92
2022-12-25T23:16:20.306Z,8.92
2022-12-25T23:18:50.498Z,8.94
2022-12-25T23:21:20.840Z,8.98
2022-12-25T23:23:51.061Z,8.94
2022-12-25T23:26:21.544Z,8.93
2022-12-25T23:28:51.948Z,8.95
2022-12-25T23:31:22.137Z,8.94
2022-12-25T23:33:52.051Z,8.91
2022-12-25T23:36:22.305Z,8.91
2022-12-25T23:38:52.629Z,8.95
2022-12-25T23:41:23.206Z,8.98
2022-12-25T23:43:53.745Z,8.96
2022-12-25T23:46:24.697Z,8.96
2022-12-25T23:48:55.417Z,8.95
2022-12-25T23:51:26.020Z,8.93
2022-12-25T23:53:56.355Z,8.89
2022-12-25T23:56:26.392Z,8.89
2022-12-25T23:58:56.888Z,8.89
